sensor_id;sensor_type;location;lat;lon;timestamp;temperature;humidity
68189;DHT22;66299;47.514;19.218;2023-03-14T00:01:24;6.24;66.36
68189;DHT22;66299;47.514;19.218;2023-03-14T00:03:53;6.16;67.28
68189;DHT22;66299;47.514;19.218;2023-03-14T00:06:21;6.21;67.07
68189;DHT22;66299;47.514;19.218;2023-03-14T00:08:52;6.24;66.80
68189;DHT22;66299;47.514;19.218;2023-03-14T00:11:21;6.18;67.00
68189;DHT22;66299;47.514;19.218;2023-03-14T00:13:50;6.21;66.87
68189;DHT22;66299;47.514;19.218;2023-03-14T00:16:22;6.17;67.01
68189;DHT22;66299;47.514;19.218;2023-03-14T00:18:54;6.22;66.79
68189;DHT22;66299;47.514;19.218;2023-03-14T00:21:24;6.16;67.32
68189;DHT22;66299;47.514;19.218;2023-03-14T00:23:53;6.34;66.39
68189;DHT22;66299;47.514;19.218;2023-03-14T00:26:23;6.39;66.91
68189;DHT22;66299;47.514;19.218;2023-03-14T00:28:52;6.45;66.67
68189;DHT22;66299;47.514;19.218;2023-03-14T00:31:24;6.31;67.01
68189;DHT22;66299;47.514;19.218;2023-03-14T00:33:53;6.38;67.14
68189;DHT22;66299;47.514;19.218;2023-03-14T00:36:22;6.49;66.57
68189;DHT22;66299;47.514;19.218;2023-03-14T00:38:51;6.57;66.34
68189;DHT22;66299;47.514;19.218;2023-03-14T00:41:23;6.72;65.46
68189;DHT22;66299;47.514;19.218;2023-03-14T00:43:51;6.75;65.20
68189;DHT22;66299;47.514;19.218;2023-03-14T00:46:21;6.77;65.17
68189;DHT22;66299;47.514;19.218;2023-03-14T00:48:51;6.85;65.35
68189;DHT22;66299;47.514;19.218;2023-03-14T00:51:25;6.89;65.27
68189;DHT22;66299;47.514;19.218;2023-03-14T00:53:57;6.83;65.38
68189;DHT22;66299;47.514;19.218;2023-03-14T00:56:28;6.90;64.87
68189;DHT22;66299;47.514;19.218;2023-03-14T00:58:57;6.96;65.23
68189;DHT22;66299;47.514;19.218;2023-03-14T01:01:26;6.96;65.08
68189;DHT22;66299;47.514;19.218;2023-03-14T01:03:56;7.04;64.65
68189;DHT22;66299;47.514;19.218;2023-03-14T01:06:28;7.08;64.62
68189;DHT22;66299;47.514;19.218;2023-03-14T01:08:57;7.01;65.09
68189;DHT22;66299;47.514;19.218;2023-03-14T01:11:28;6.96;64.93
68189;DHT22;66299;47.514;19.218;2023-03-14T01:13:58;6.85;65.46
68189;DHT22;66299;47.514;19.218;2023-03-14T01:16:29;6.82;65.76
68189;DHT22;66299;47.514;19.218;2023-03-14T01:19:00;6.83;65.91
68189;DHT22;66299;47.514;19.218;2023-03-14T01:21:31;6.69;66.37
68189;DHT22;66299;47.514;19.218;2023-03-14T01:24:01;6.61;66.29
68189;DHT22;66299;47.514;19.218;2023-03-14T01:26:32;6.50;66.64
68189;DHT22;66299;47.514;19.218;2023-03-14T01:29:02;6.50;67.12
68189;DHT22;66299;47.514;19.218;2023-03-14T01:31:31;6.46;67.47
68189;DHT22;66299;47.514;19.218;2023-03-14T01:34:03;6.35;67.44
68189;DHT22;66299;47.514;19.218;2023-03-14T01:36:34;6.27;67.69
68189;DHT22;66299;47.514;19.218;2023-03-14T01:39:07;6.11;68.37
68189;DHT22;66299;47.514;19.218;2023-03-14T01:41:36;5.98;68.61
68189;DHT22;66299;47.514;19.218;2023-03-14T01:44:09;5.86;69.56
68189;DHT22;66299;47.514;19.218;2023-03-14T01:46:39;5.79;69.41
68189;DHT22;66299;47.514;19.218;2023-03-14T01:49:16;5.70;69.86
68189;DHT22;66299;47.514;19.218;2023-03-14T01:51:51;5.60;70.39
68189;DHT22;66299;47.514;19.218;2023-03-14T01:54:28;5.65;69.79
68189;DHT22;66299;47.514;19.218;2023-03-14T01:57:04;5.62;70.21
68189;DHT22;66299;47.514;19.218;2023-03-14T01:59:36;5.66;69.91
68189;DHT22;66299;47.514;19.218;2023-03-14T02:02:06;5.77;69.85
68189;DHT22;66299;47.514;19.218;2023-03-14T02:04:38;5.77;70.10
68189;DHT22;66299;47.514;19.218;2023-03-14T02:07:12;5.77;69.88
68189;DHT22;66299;47.514;19.218;2023-03-14T02:09:43;5.86;69.63
68189;DHT22;66299;47.514;19.218;2023-03-14T02:12:15;5.81;69.82
68189;DHT22;66299;47.514;19.218;2023-03-14T02:14:46;5.83;70.07
68189;DHT22;66299;47.514;19.218;2023-03-14T02:17:17;5.90;69.74
68189;DHT22;66299;47.514;19.218;2023-03-14T02:20:03;6.04;69.38
68189;DHT22;66299;47.514;19.218;2023-03-14T02:22:40;6.06;69.22
68189;DHT22;66299;47.514;19.218;2023-03-14T02:25:11;6.11;69.34
68189;DHT22;66299;47.514;19.218;2023-03-14T02:27:43;6.11;69.50
68189;DHT22;66299;47.514;19.218;2023-03-14T02:30:16;6.20;69.17
68189;DHT22;66299;47.514;19.218;2023-03-14T02:32:47;6.11;70.12
68189;DHT22;66299;47.514;19.218;2023-03-14T02:35:22;6.10;70.40
68189;DHT22;66299;47.514;19.218;2023-03-14T02:37:54;6.16;70.04
68189;DHT22;66299;47.514;19.218;2023-03-14T02:40:23;6.16;70.07
68189;DHT22;66299;47.514;19.218;2023-03-14T02:42:53;6.16;70.19
68189;DHT22;66299;47.514;19.218;2023-03-14T02:45:42;6.17;70.46
68189;DHT22;66299;47.514;19.218;2023-03-14T02:48:19;6.13;70.26
68189;DHT22;66299;47.514;19.218;2023-03-14T02:50:50;6.07;70.53
68189;DHT22;66299;47.514;19.218;2023-03-14T02:53:23;6.01;70.82
68189;DHT22;66299;47.514;19.218;2023-03-14T02:55:53;6.00;71.05
68189;DHT22;66299;47.514;19.218;2023-03-14T02:58:25;5.90;71.44
68189;DHT22;66299;47.514;19.218;2023-03-14T03:00:57;5.94;71.59
68189;DHT22;66299;47.514;19.218;2023-03-14T03:03:26;5.98;71.47
68189;DHT22;66299;47.514;19.218;2023-03-14T03:05:55;6.04;71.04
68189;DHT22;66299;47.514;19.218;2023-03-14T03:08:27;6.00;71.63
68189;DHT22;66299;47.514;19.218;2023-03-14T03:10:57;6.03;71.62
68189;DHT22;66299;47.514;19.218;2023-03-14T03:13:28;6.20;71.35
68189;DHT22;66299;47.514;19.218;2023-03-14T03:15:56;6.46;70.40
68189;DHT22;66299;47.514;19.218;2023-03-14T03:18:27;6.71;69.53
68189;DHT22;66299;47.514;19.218;2023-03-14T03:21:00;6.80;69.47
68189;DHT22;66299;47.514;19.218;2023-03-14T03:23:28;6.99;68.66
68189;DHT22;66299;47.514;19.218;2023-03-14T03:25:57;7.10;68.31
68189;DHT22;66299;47.514;19.218;2023-03-14T03:28:27;7.10;68.55
68189;DHT22;66299;47.514;19.218;2023-03-14T03:30:56;7.23;68.02
68189;DHT22;66299;47.514;19.218;2023-03-14T03:33:26;7.30;68.01
68189;DHT22;66299;47.514;19.218;2023-03-14T03:35:56;7.31;68.06
68189;DHT22;66299;47.514;19.218;2023-03-14T03:38:26;7.24;68.22
68189;DHT22;66299;47.514;19.218;2023-03-14T03:40:54;7.21;68.09
68189;DHT22;66299;47.514;19.218;2023-03-14T03:43:24;7.14;68.40
68189;DHT22;66299;47.514;19.218;2023-03-14T03:45:54;7.08;68.54
68189;DHT22;66299;47.514;19.218;2023-03-14T03:48:23;7.08;68.40
68189;DHT22;66299;47.514;19.218;2023-03-14T03:50:52;6.90;69.22
68189;DHT22;66299;47.514;19.218;2023-03-14T03:53:25;6.83;69.65
68189;DHT22;66299;47.514;19.218;2023-03-14T03:56:00;6.66;70.06
68189;DHT22;66299;47.514;19.218;2023-03-14T03:58:31;6.68;69.57
68189;DHT22;66299;47.514;19.218;2023-03-14T04:01:01;6.72;69.88
68189;DHT22;66299;47.514;19.218;2023-03-14T04:03:31;6.66;69.89
68189;DHT22;66299;47.514;19.218;2023-03-14T04:06:02;6.65;70.18
68189;DHT22;66299;47.514;19.218;2023-03-14T04:08:34;6.66;70.10
68189;DHT22;66299;47.514;19.218;2023-03-14T04:11:04;6.77;69.61
68189;DHT22;66299;47.514;19.218;2023-03-14T04:13:33;6.75;69.42
68189;DHT22;66299;47.514;19.218;2023-03-14T04:16:08;6.72;69.88
68189;DHT22;66299;47.514;19.218;2023-03-14T04:18:38;6.45;71.40
68189;DHT22;66299;47.514;19.218;2023-03-14T04:21:07;6.34;71.27
68189;DHT22;66299;47.514;19.218;2023-03-14T04:23:38;6.28;71.55
68189;DHT22;66299;47.514;19.218;2023-03-14T04:26:10;6.20;71.82
68189;DHT22;66299;47.514;19.218;2023-03-14T04:28:38;6.21;71.53
68189;DHT22;66299;47.514;19.218;2023-03-14T04:31:09;6.36;71.34
68189;DHT22;66299;47.514;19.218;2023-03-14T04:33:40;6.44;70.58
68189;DHT22;66299;47.514;19.218;2023-03-14T04:36:15;6.48;70.68
68189;DHT22;66299;47.514;19.218;2023-03-14T04:38:44;6.52;70.18
68189;DHT22;66299;47.514;19.218;2023-03-14T04:41:12;6.44;70.70
68189;DHT22;66299;47.514;19.218;2023-03-14T04:43:41;6.42;70.49
68189;DHT22;66299;47.514;19.218;2023-03-14T04:46:13;6.44;70.37
68189;DHT22;66299;47.514;19.218;2023-03-14T04:48:41;6.53;70.10
68189;DHT22;66299;47.514;19.218;2023-03-14T04:51:12;6.66;69.61
68189;DHT22;66299;47.514;19.218;2023-03-14T04:53:41;6.76;69.26
68189;DHT22;66299;47.514;19.218;2023-03-14T04:56:09;6.96;68.11
68189;DHT22;66299;47.514;19.218;2023-03-14T04:58:40;7.00;68.30
68189;DHT22;66299;47.514;19.218;2023-03-14T05:01:08;7.08;67.99
68189;DHT22;66299;47.514;19.218;2023-03-14T05:03:40;7.17;67.40
68189;DHT22;66299;47.514;19.218;2023-03-14T05:06:09;7.14;67.70
68189;DHT22;66299;47.514;19.218;2023-03-14T05:08:38;7.17;67.47
68189;DHT22;66299;47.514;19.218;2023-03-14T05:11:10;7.28;66.67
68189;DHT22;66299;47.514;19.218;2023-03-14T05:13:39;7.32;66.36
68189;DHT22;66299;47.514;19.218;2023-03-14T05:16:10;7.21;67.37
68189;DHT22;66299;47.514;19.218;2023-03-14T05:18:41;7.21;67.09
68189;DHT22;66299;47.514;19.218;2023-03-14T05:21:10;7.50;66.07
68189;DHT22;66299;47.514;19.218;2023-03-14T05:23:39;7.56;65.94
68189;DHT22;66299;47.514;19.218;2023-03-14T05:26:08;7.65;65.44
68189;DHT22;66299;47.514;19.218;2023-03-14T05:28:40;7.66;65.68
68189;DHT22;66299;47.514;19.218;2023-03-14T05:31:09;7.78;64.94
68189;DHT22;66299;47.514;19.218;2023-03-14T05:33:42;7.85;65.01
68189;DHT22;66299;47.514;19.218;2023-03-14T05:36:10;7.79;65.25
68189;DHT22;66299;47.514;19.218;2023-03-14T05:38:39;7.79;65.35
68189;DHT22;66299;47.514;19.218;2023-03-14T05:41:08;7.69;65.65
68189;DHT22;66299;47.514;19.218;2023-03-14T05:43:39;7.83;65.36
68189;DHT22;66299;47.514;19.218;2023-03-14T05:46:08;8.07;64.49
68189;DHT22;66299;47.514;19.218;2023-03-14T05:48:36;8.16;64.25
68189;DHT22;66299;47.514;19.218;2023-03-14T05:51:07;8.13;64.75
68189;DHT22;66299;47.514;19.218;2023-03-14T05:53:35;8.34;63.96
68189;DHT22;66299;47.514;19.218;2023-03-14T05:56:04;8.51;63.40
68189;DHT22;66299;47.514;19.218;2023-03-14T05:58:35;8.69;63.02
68189;DHT22;66299;47.514;19.218;2023-03-14T06:01:04;8.82;62.55
68189;DHT22;66299;47.514;19.218;2023-03-14T06:03:35;8.95;62.06
68189;DHT22;66299;47.514;19.218;2023-03-14T06:06:08;9.12;61.77
68189;DHT22;66299;47.514;19.218;2023-03-14T06:08:36;9.23;61.57
68189;DHT22;66299;47.514;19.218;2023-03-14T06:11:08;9.30;61.60
68189;DHT22;66299;47.514;19.218;2023-03-14T06:13:37;9.48;60.87
68189;DHT22;66299;47.514;19.218;2023-03-14T06:16:07;9.57;60.93
68189;DHT22;66299;47.514;19.218;2023-03-14T06:18:36;9.75;59.94
68189;DHT22;66299;47.514;19.218;2023-03-14T06:21:08;9.84;59.77
68189;DHT22;66299;47.514;19.218;2023-03-14T06:23:39;10.03;59.02
68189;DHT22;66299;47.514;19.218;2023-03-14T06:26:07;10.15;58.20
68189;DHT22;66299;47.514;19.218;2023-03-14T06:28:40;10.28;58.13
68189;DHT22;66299;47.514;19.218;2023-03-14T06:31:11;10.40;58.27
68189;DHT22;66299;47.514;19.218;2023-03-14T06:33:40;10.44;58.05
68189;DHT22;66299;47.514;19.218;2023-03-14T06:36:12;10.53;57.73
68189;DHT22;66299;47.514;19.218;2023-03-14T06:38:41;10.61;57.36
68189;DHT22;66299;47.514;19.218;2023-03-14T06:41:12;10.73;57.12
68189;DHT22;66299;47.514;19.218;2023-03-14T06:43:42;10.67;56.88
68189;DHT22;66299;47.514;19.218;2023-03-14T06:46:10;10.77;57.25
68189;DHT22;66299;47.514;19.218;2023-03-14T06:48:39;10.78;57.02
68189;DHT22;66299;47.514;19.218;2023-03-14T06:51:10;10.92;56.68
68189;DHT22;66299;47.514;19.218;2023-03-14T06:53:41;10.92;56.12
68189;DHT22;66299;47.514;19.218;2023-03-14T06:56:10;11.01;56.69
68189;DHT22;66299;47.514;19.218;2023-03-14T06:58:45;11.18;56.60
68189;DHT22;66299;47.514;19.218;2023-03-14T07:01:21;11.36;55.81
68189;DHT22;66299;47.514;19.218;2023-03-14T07:03:51;11.44;56.16
68189;DHT22;66299;47.514;19.218;2023-03-14T07:06:24;11.42;55.75
68189;DHT22;66299;47.514;19.218;2023-03-14T07:08:55;11.53;55.95
68189;DHT22;66299;47.514;19.218;2023-03-14T07:11:24;11.63;55.69
68189;DHT22;66299;47.514;19.218;2023-03-14T07:13:53;11.67;55.88
68189;DHT22;66299;47.514;19.218;2023-03-14T07:16:21;11.73;55.88
68189;DHT22;66299;47.514;19.218;2023-03-14T07:18:50;11.87;55.43
68189;DHT22;66299;47.514;19.218;2023-03-14T07:21:19;12.07;55.12
68189;DHT22;66299;47.514;19.218;2023-03-14T07:23:49;12.21;55.14
68189;DHT22;66299;47.514;19.218;2023-03-14T07:26:19;12.25;54.78
68189;DHT22;66299;47.514;19.218;2023-03-14T07:28:48;12.28;54.58
68189;DHT22;66299;47.514;19.218;2023-03-14T07:31:25;12.42;53.98
68189;DHT22;66299;47.514;19.218;2023-03-14T07:33:55;12.44;54.35
68189;DHT22;66299;47.514;19.218;2023-03-14T07:36:25;12.48;54.68
68189;DHT22;66299;47.514;19.218;2023-03-14T07:38:58;12.66;54.71
68189;DHT22;66299;47.514;19.218;2023-03-14T07:41:29;12.76;54.39
68189;DHT22;66299;47.514;19.218;2023-03-14T07:44:04;12.89;53.84
68189;DHT22;66299;47.514;19.218;2023-03-14T07:46:33;13.10;53.83
68189;DHT22;66299;47.514;19.218;2023-03-14T07:49:01;13.11;53.57
68189;DHT22;66299;47.514;19.218;2023-03-14T07:51:31;13.10;53.81
68189;DHT22;66299;47.514;19.218;2023-03-14T07:54:04;13.21;53.84
68189;DHT22;66299;47.514;19.218;2023-03-14T07:56:35;13.28;53.46
68189;DHT22;66299;47.514;19.218;2023-03-14T07:59:05;13.45;53.81
68189;DHT22;66299;47.514;19.218;2023-03-14T08:01:36;13.55;52.78
68189;DHT22;66299;47.514;19.218;2023-03-14T08:04:08;13.69;53.00
68189;DHT22;66299;47.514;19.218;2023-03-14T08:06:41;13.76;52.80
68189;DHT22;66299;47.514;19.218;2023-03-14T08:09:15;13.90;52.44
68189;DHT22;66299;47.514;19.218;2023-03-14T08:11:48;14.03;52.36
68189;DHT22;66299;47.514;19.218;2023-03-14T08:14:17;14.09;52.63
68189;DHT22;66299;47.514;19.218;2023-03-14T08:16:47;14.20;51.49
68189;DHT22;66299;47.514;19.218;2023-03-14T08:19:18;14.30;51.69
68189;DHT22;66299;47.514;19.218;2023-03-14T08:21:47;14.44;50.84
68189;DHT22;66299;47.514;19.218;2023-03-14T08:24:19;14.60;51.60
68189;DHT22;66299;47.514;19.218;2023-03-14T08:26:49;14.68;50.96
68189;DHT22;66299;47.514;19.218;2023-03-14T08:29:20;14.81;50.37
68189;DHT22;66299;47.514;19.218;2023-03-14T08:31:51;14.81;50.10
68189;DHT22;66299;47.514;19.218;2023-03-14T08:34:19;14.82;50.68
68189;DHT22;66299;47.514;19.218;2023-03-14T08:36:51;14.95;50.18
68189;DHT22;66299;47.514;19.218;2023-03-14T08:39:22;15.00;50.24
68189;DHT22;66299;47.514;19.218;2023-03-14T08:41:52;15.27;50.19
68189;DHT22;66299;47.514;19.218;2023-03-14T08:44:22;15.49;49.83
68189;DHT22;66299;47.514;19.218;2023-03-14T08:46:52;15.54;49.44
68189;DHT22;66299;47.514;19.218;2023-03-14T08:49:22;15.57;49.70
68189;DHT22;66299;47.514;19.218;2023-03-14T08:51:52;15.82;49.53
68189;DHT22;66299;47.514;19.218;2023-03-14T08:54:23;15.97;49.07
68189;DHT22;66299;47.514;19.218;2023-03-14T08:56:53;16.29;48.56
68189;DHT22;66299;47.514;19.218;2023-03-14T08:59:24;16.45;46.95
68189;DHT22;66299;47.514;19.218;2023-03-14T09:01:53;16.32;46.96
68189;DHT22;66299;47.514;19.218;2023-03-14T09:04:24;16.48;47.30
68189;DHT22;66299;47.514;19.218;2023-03-14T09:06:52;16.50;47.45
68189;DHT22;66299;47.514;19.218;2023-03-14T09:09:41;16.63;47.28
68189;DHT22;66299;47.514;19.218;2023-03-14T09:12:12;16.39;47.59
68189;DHT22;66299;47.514;19.218;2023-03-14T09:14:45;16.40;47.60
68189;DHT22;66299;47.514;19.218;2023-03-14T09:17:13;16.43;46.92
68189;DHT22;66299;47.514;19.218;2023-03-14T09:19:45;16.53;48.03
68189;DHT22;66299;47.514;19.218;2023-03-14T09:22:14;16.16;47.04
68189;DHT22;66299;47.514;19.218;2023-03-14T09:24:45;16.30;47.67
68189;DHT22;66299;47.514;19.218;2023-03-14T09:27:16;16.46;47.65
68189;DHT22;66299;47.514;19.218;2023-03-14T09:29:45;16.55;47.50
68189;DHT22;66299;47.514;19.218;2023-03-14T09:32:15;16.29;48.05
68189;DHT22;66299;47.514;19.218;2023-03-14T09:34:45;16.43;47.74
68189;DHT22;66299;47.514;19.218;2023-03-14T09:37:15;16.45;47.73
68189;DHT22;66299;47.514;19.218;2023-03-14T09:39:45;16.59;48.04
68189;DHT22;66299;47.514;19.218;2023-03-14T09:42:16;16.74;48.34
68189;DHT22;66299;47.514;19.218;2023-03-14T09:44:53;16.64;47.92
68189;DHT22;66299;47.514;19.218;2023-03-14T09:47:23;16.95;47.75
68189;DHT22;66299;47.514;19.218;2023-03-14T09:49:53;17.19;47.85
68189;DHT22;66299;47.514;19.218;2023-03-14T09:52:25;17.24;47.52
68189;DHT22;66299;47.514;19.218;2023-03-14T09:54:58;17.27;48.11
68189;DHT22;66299;47.514;19.218;2023-03-14T09:57:34;17.61;47.07
68189;DHT22;66299;47.514;19.218;2023-03-14T10:00:06;17.76;47.23
68189;DHT22;66299;47.514;19.218;2023-03-14T10:02:49;18.01;46.81
68189;DHT22;66299;47.514;19.218;2023-03-14T10:05:21;17.91;46.26
68189;DHT22;66299;47.514;19.218;2023-03-14T10:07:50;18.17;47.09
68189;DHT22;66299;47.514;19.218;2023-03-14T10:10:22;18.10;46.18
68189;DHT22;66299;47.514;19.218;2023-03-14T10:12:55;18.24;46.43
68189;DHT22;66299;47.514;19.218;2023-03-14T10:15:26;18.18;45.66
68189;DHT22;66299;47.514;19.218;2023-03-14T10:17:57;18.25;45.66
68189;DHT22;66299;47.514;19.218;2023-03-14T10:20:31;18.07;45.83
68189;DHT22;66299;47.514;19.218;2023-03-14T10:23:05;18.38;45.20
68189;DHT22;66299;47.514;19.218;2023-03-14T10:25:39;18.79;45.66
68189;DHT22;66299;47.514;19.218;2023-03-14T10:28:23;18.71;44.98
68189;DHT22;66299;47.514;19.218;2023-03-14T10:30:54;18.90;44.99
68189;DHT22;66299;47.514;19.218;2023-03-14T10:33:25;18.79;44.84
68189;DHT22;66299;47.514;19.218;2023-03-14T10:35:57;19.14;45.29
68189;DHT22;66299;47.514;19.218;2023-03-14T10:38:31;18.93;45.05
68189;DHT22;66299;47.514;19.218;2023-03-14T10:41:03;18.45;45.40
68189;DHT22;66299;47.514;19.218;2023-03-14T10:43:43;18.44;45.93
68189;DHT22;66299;47.514;19.218;2023-03-14T10:46:14;18.53;45.56
68189;DHT22;66299;47.514;19.218;2023-03-14T10:48:49;18.45;46.15
68189;DHT22;66299;47.514;19.218;2023-03-14T10:51:26;18.58;45.62
68189;DHT22;66299;47.514;19.218;2023-03-14T10:54:00;18.66;46.21
68189;DHT22;66299;47.514;19.218;2023-03-14T10:56:35;18.79;45.59
68189;DHT22;66299;47.514;19.218;2023-03-14T10:59:12;18.66;45.90
68189;DHT22;66299;47.514;19.218;2023-03-14T11:01:45;18.51;46.13
68189;DHT22;66299;47.514;19.218;2023-03-14T11:04:23;18.42;46.06
68189;DHT22;66299;47.514;19.218;2023-03-14T11:06:58;18.44;46.39
68189;DHT22;66299;47.514;19.218;2023-03-14T11:09:36;18.80;45.70
68189;DHT22;66299;47.514;19.218;2023-03-14T11:12:23;19.03;45.82
68189;DHT22;66299;47.514;19.218;2023-03-14T11:14:58;19.00;45.45
68189;DHT22;66299;47.514;19.218;2023-03-14T11:17:36;19.13;45.87
68189;DHT22;66299;47.514;19.218;2023-03-14T11:20:27;19.21;45.72
68189;DHT22;66299;47.514;19.218;2023-03-14T11:23:04;19.67;44.14
68189;DHT22;66299;47.514;19.218;2023-03-14T11:25:44;19.74;44.68
68189;DHT22;66299;47.514;19.218;2023-03-14T11:28:23;20.09;44.84
68189;DHT22;66299;47.514;19.218;2023-03-14T11:30:54;20.13;44.21
68189;DHT22;66299;47.514;19.218;2023-03-14T11:33:28;20.23;43.04
68189;DHT22;66299;47.514;19.218;2023-03-14T11:36:04;20.53;42.94
68189;DHT22;66299;47.514;19.218;2023-03-14T11:38:37;20.40;41.95
68189;DHT22;66299;47.514;19.218;2023-03-14T11:41:09;20.26;41.54
68189;DHT22;66299;47.514;19.218;2023-03-14T11:43:42;19.77;42.22
68189;DHT22;66299;47.514;19.218;2023-03-14T11:46:17;19.64;42.52
68189;DHT22;66299;47.514;19.218;2023-03-14T11:48:49;19.64;43.15
68189;DHT22;66299;47.514;19.218;2023-03-14T11:51:29;19.41;43.09
68189;DHT22;66299;47.514;19.218;2023-03-14T11:54:03;19.59;43.26
68189;DHT22;66299;47.514;19.218;2023-03-14T11:56:36;19.71;43.32
68189;DHT22;66299;47.514;19.218;2023-03-14T11:59:14;19.77;43.18
68189;DHT22;66299;47.514;19.218;2023-03-14T12:06:21;19.64;42.95
68189;DHT22;66299;47.514;19.218;2023-03-14T12:08:52;19.74;42.95
68189;DHT22;66299;47.514;19.218;2023-03-14T12:11:33;19.78;42.96
68189;DHT22;66299;47.514;19.218;2023-03-14T12:14:03;19.88;43.28
68189;DHT22;66299;47.514;19.218;2023-03-14T12:16:35;19.99;42.73
68189;DHT22;66299;47.514;19.218;2023-03-14T12:19:35;19.86;43.16
68189;DHT22;66299;47.514;19.218;2023-03-14T12:22:26;19.85;43.25
68189;DHT22;66299;47.514;19.218;2023-03-14T12:25:13;20.13;42.70
68189;DHT22;66299;47.514;19.218;2023-03-14T12:30:39;20.12;42.63
68189;DHT22;66299;47.514;19.218;2023-03-14T12:33:28;20.08;42.96
68189;DHT22;66299;47.514;19.218;2023-03-14T12:39:10;20.02;42.97
68189;DHT22;66299;47.514;19.218;2023-03-14T12:41:45;19.96;43.20
68189;DHT22;66299;47.514;19.218;2023-03-14T12:44:48;20.10;43.07
68189;DHT22;66299;47.514;19.218;2023-03-14T12:47:47;20.09;42.01
68189;DHT22;66299;47.514;19.218;2023-03-14T12:50:33;20.02;42.70
68189;DHT22;66299;47.514;19.218;2023-03-14T12:56:25;19.79;42.21
68189;DHT22;66299;47.514;19.218;2023-03-14T12:59:14;19.78;42.81
68189;DHT22;66299;47.514;19.218;2023-03-14T13:01:47;19.83;42.88
68189;DHT22;66299;47.514;19.218;2023-03-14T13:04:28;19.64;42.25
68189;DHT22;66299;47.514;19.218;2023-03-14T13:07:11;19.54;41.58
68189;DHT22;66299;47.514;19.218;2023-03-14T13:10:05;19.44;41.40
68189;DHT22;66299;47.514;19.218;2023-03-14T13:12:47;19.43;41.86
68189;DHT22;66299;47.514;19.218;2023-03-14T13:15:23;19.44;41.90
68189;DHT22;66299;47.514;19.218;2023-03-14T13:17:56;19.40;41.99
68189;DHT22;66299;47.514;19.218;2023-03-14T13:20:31;19.27;42.52
68189;DHT22;66299;47.514;19.218;2023-03-14T13:23:03;19.10;43.02
68189;DHT22;66299;47.514;19.218;2023-03-14T13:25:34;19.14;42.70
68189;DHT22;66299;47.514;19.218;2023-03-14T13:28:03;19.21;42.48
68189;DHT22;66299;47.514;19.218;2023-03-14T13:30:40;19.27;42.26
68189;DHT22;66299;47.514;19.218;2023-03-14T13:33:14;19.17;42.45
68189;DHT22;66299;47.514;19.218;2023-03-14T13:35:45;19.20;42.31
68189;DHT22;66299;47.514;19.218;2023-03-14T13:38:18;19.07;42.53
68189;DHT22;66299;47.514;19.218;2023-03-14T13:40:48;18.90;44.77
68189;DHT22;66299;47.514;19.218;2023-03-14T13:43:20;18.82;43.56
68189;DHT22;66299;47.514;19.218;2023-03-14T13:45:54;18.76;44.03
68189;DHT22;66299;47.514;19.218;2023-03-14T13:48:27;18.49;46.03
68189;DHT22;66299;47.514;19.218;2023-03-14T13:50:59;18.52;44.99
68189;DHT22;66299;47.514;19.218;2023-03-14T13:53:30;18.59;44.77
68189;DHT22;66299;47.514;19.218;2023-03-14T13:56:05;18.69;45.63
68189;DHT22;66299;47.514;19.218;2023-03-14T13:58:38;18.71;45.74
68189;DHT22;66299;47.514;19.218;2023-03-14T14:01:12;18.72;46.33
68189;DHT22;66299;47.514;19.218;2023-03-14T14:03:43;18.75;45.93
68189;DHT22;66299;47.514;19.218;2023-03-14T14:06:21;18.63;46.40
68189;DHT22;66299;47.514;19.218;2023-03-14T14:08:53;18.76;45.28
68189;DHT22;66299;47.514;19.218;2023-03-14T14:11:32;18.71;46.21
68189;DHT22;66299;47.514;19.218;2023-03-14T14:14:15;18.52;47.29
68189;DHT22;66299;47.514;19.218;2023-03-14T14:16:47;18.55;47.03
68189;DHT22;66299;47.514;19.218;2023-03-14T14:19:21;18.61;46.93
68189;DHT22;66299;47.514;19.218;2023-03-14T14:21:50;18.56;46.69
68189;DHT22;66299;47.514;19.218;2023-03-14T14:24:23;18.49;46.84
68189;DHT22;66299;47.514;19.218;2023-03-14T14:26:53;18.56;46.53
68189;DHT22;66299;47.514;19.218;2023-03-14T14:29:28;18.61;46.73
68189;DHT22;66299;47.514;19.218;2023-03-14T14:32:01;18.71;46.62
68189;DHT22;66299;47.514;19.218;2023-03-14T14:34:38;18.61;46.88
68189;DHT22;66299;47.514;19.218;2023-03-14T14:37:18;18.52;47.61
68189;DHT22;66299;47.514;19.218;2023-03-14T14:39:54;18.40;47.85
68189;DHT22;66299;47.514;19.218;2023-03-14T14:42:26;18.32;47.15
68189;DHT22;66299;47.514;19.218;2023-03-14T14:44:57;18.41;46.55
68189;DHT22;66299;47.514;19.218;2023-03-14T14:47:29;18.25;46.81
68189;DHT22;66299;47.514;19.218;2023-03-14T14:50:04;18.15;47.05
68189;DHT22;66299;47.514;19.218;2023-03-14T14:52:39;18.17;46.64
68189;DHT22;66299;47.514;19.218;2023-03-14T14:55:17;18.07;46.61
68189;DHT22;66299;47.514;19.218;2023-03-14T14:57:50;17.96;46.98
68189;DHT22;66299;47.514;19.218;2023-03-14T15:00:22;17.96;46.29
68189;DHT22;66299;47.514;19.218;2023-03-14T15:02:52;17.86;46.47
68189;DHT22;66299;47.514;19.218;2023-03-14T15:05:24;17.80;46.47
68189;DHT22;66299;47.514;19.218;2023-03-14T15:07:54;17.69;47.18
68189;DHT22;66299;47.514;19.218;2023-03-14T15:10:25;17.72;46.80
68189;DHT22;66299;47.514;19.218;2023-03-14T15:12:53;17.63;47.11
68189;DHT22;66299;47.514;19.218;2023-03-14T15:15:22;17.52;47.31
68189;DHT22;66299;47.514;19.218;2023-03-14T15:17:50;17.52;46.93
68189;DHT22;66299;47.514;19.218;2023-03-14T15:20:19;17.42;47.43
68189;DHT22;66299;47.514;19.218;2023-03-14T15:22:50;17.42;47.89
68189;DHT22;66299;47.514;19.218;2023-03-14T15:25:19;17.45;47.71
68189;DHT22;66299;47.514;19.218;2023-03-14T15:28:17;17.19;49.33
68189;DHT22;66299;47.514;19.218;2023-03-14T15:30:47;17.15;49.57
68189;DHT22;66299;47.514;19.218;2023-03-14T15:33:16;17.28;48.46
68189;DHT22;66299;47.514;19.218;2023-03-14T15:35:44;17.12;49.02
68189;DHT22;66299;47.514;19.218;2023-03-14T15:38:16;17.22;48.77
68189;DHT22;66299;47.514;19.218;2023-03-14T15:40:46;17.00;49.84
68189;DHT22;66299;47.514;19.218;2023-03-14T15:43:18;17.04;49.40
68189;DHT22;66299;47.514;19.218;2023-03-14T15:45:47;17.01;49.56
68189;DHT22;66299;47.514;19.218;2023-03-14T15:48:19;16.87;50.52
68189;DHT22;66299;47.514;19.218;2023-03-14T15:50:50;16.77;50.30
68189;DHT22;66299;47.514;19.218;2023-03-14T15:53:18;16.78;50.62
68189;DHT22;66299;47.514;19.218;2023-03-14T15:55:46;16.77;50.53
68189;DHT22;66299;47.514;19.218;2023-03-14T15:58:18;16.61;51.75
68189;DHT22;66299;47.514;19.218;2023-03-14T16:00:48;16.63;52.70
68189;DHT22;66299;47.514;19.218;2023-03-14T16:03:18;16.59;52.95
68189;DHT22;66299;47.514;19.218;2023-03-14T16:05:46;16.55;52.86
68189;DHT22;66299;47.514;19.218;2023-03-14T16:08:16;16.39;54.41